Time;durP1;ratioP1;P1;durP2;ratioP2;P2;SDS_P1;SDS_P2;PMS_P1;PMS_P2;Temp;Humidity;BMP_temperature;BMP_pressure;BME280_temperature;BME280_humidity;BME280_pressure;Samples;Min_cycle;Max_cycle;Signal;HPM_P1;HPM_P2
2021/07/30 00:00:28;;;;;;;18.30;3.80;;;16.70;99.90;;;;;;5093115;28;20833;-84
2021/07/30 00:02:55;;;;;;;17.43;3.17;;;16.70;99.90;;;;;;5094465;28;20547;-84
2021/07/30 00:05:22;;;;;;;17.03;3.43;;;16.60;99.90;;;;;;5093777;28;20954;-84
2021/07/30 00:07:49;;;;;;;17.23;3.40;;;16.70;99.90;;;;;;5106755;28;20476;-84
2021/07/30 00:10:17;;;;;;;17.03;3.63;;;16.60;99.90;;;;;;5091498;28;20453;-83
2021/07/30 00:12:44;;;;;;;18.80;4.47;;;16.60;99.90;;;;;;5080347;28;20843;-84
2021/07/30 00:15:11;;;;;;;17.50;3.33;;;16.60;99.90;;;;;;5093591;28;20451;-84
2021/07/30 00:17:38;;;;;;;18.33;3.53;;;16.50;99.90;;;;;;5104500;28;20449;-84
2021/07/30 00:20:07;;;;;;;14.87;2.90;;;16.50;99.90;;;;;;5111838;28;20456;-85
2021/07/30 00:22:34;;;;;;;14.77;3.00;;;16.50;99.90;;;;;;5094472;28;20453;-84
2021/07/30 00:25:01;;;;;;;15.03;3.43;;;16.50;99.90;;;;;;5093255;28;20912;-84
2021/07/30 00:27:29;;;;;;;18.77;3.90;;;16.50;99.90;;;;;;5089928;28;20538;-85
2021/07/30 00:29:56;;;;;;;13.60;3.47;;;16.50;99.90;;;;;;5092879;28;20453;-84
2021/07/30 00:32:23;;;;;;;16.00;3.33;;;16.40;99.90;;;;;;5094513;28;20878;-84
2021/07/30 00:34:49;;;;;;;13.13;3.83;;;16.40;99.90;;;;;;5097531;28;20449;-84
2021/07/30 00:37:16;;;;;;;13.40;3.40;;;16.40;99.90;;;;;;5104550;28;20559;-83
2021/07/30 00:39:43;;;;;;;13.53;3.40;;;16.40;99.90;;;;;;5117437;28;20443;-83
2021/07/30 00:42:10;;;;;;;15.70;3.90;;;16.40;99.90;;;;;;5117599;28;20459;-84
2021/07/30 00:44:38;;;;;;;13.70;3.60;;;16.40;99.90;;;;;;5117673;28;20451;-84
2021/07/30 00:47:06;;;;;;;14.07;3.40;;;16.40;99.90;;;;;;5115418;28;20480;-84
2021/07/30 00:49:33;;;;;;;13.50;3.00;;;16.40;99.90;;;;;;5116595;28;20495;-84
2021/07/30 00:52:00;;;;;;;15.93;3.97;;;16.50;99.90;;;;;;5118129;28;20450;-84
2021/07/30 00:54:27;;;;;;;14.97;4.87;;;16.50;99.90;;;;;;5116704;28;21037;-84
2021/07/30 00:56:54;;;;;;;17.40;3.70;;;16.50;99.90;;;;;;5112168;28;21035;-83
2021/07/30 00:59:22;;;;;;;13.80;3.40;;;16.50;99.90;;;;;;5094133;28;20472;-83
2021/07/30 01:01:51;;;;;;;15.33;3.90;;;16.60;99.90;;;;;;5095408;28;20435;-84
2021/07/30 01:04:18;;;;;;;13.53;3.47;;;16.60;99.90;;;;;;5095341;28;20529;-83
2021/07/30 01:06:45;;;;;;;14.33;4.13;;;16.60;99.90;;;;;;5096318;28;20479;-82
2021/07/30 01:09:12;;;;;;;12.37;3.33;;;16.70;99.90;;;;;;5107305;28;20858;-83
2021/07/30 01:11:40;;;;;;;13.73;3.50;;;16.70;99.90;;;;;;5113125;28;20441;-83
2021/07/30 01:14:09;;;;;;;12.57;3.20;;;16.70;99.90;;;;;;5114947;28;20451;-83
2021/07/30 01:16:38;;;;;;;13.77;3.73;;;16.80;99.90;;;;;;5113485;28;20888;-84
2021/07/30 01:19:09;;;;;;;14.50;4.67;;;16.90;99.90;;;;;;5094026;28;20451;-84
2021/07/30 01:21:37;;;;;;;13.17;3.40;;;16.90;99.90;;;;;;5094494;28;20475;-83
2021/07/30 01:24:06;;;;;;;13.40;3.57;;;16.90;99.90;;;;;;5094430;28;20457;-84
2021/07/30 01:26:32;;;;;;;14.03;3.57;;;17.00;99.90;;;;;;5093839;28;20478;-85
2021/07/30 01:28:59;;;;;;;16.63;3.53;;;17.10;99.90;;;;;;5113510;28;20479;-84
2021/07/30 01:31:26;;;;;;;13.80;3.70;;;17.10;99.90;;;;;;5114611;28;20454;-83
2021/07/30 01:33:53;;;;;;;14.47;3.60;;;17.10;99.90;;;;;;5114041;28;20941;-83
2021/07/30 01:36:20;;;;;;;13.33;3.70;;;17.20;99.90;;;;;;5112569;28;20483;-83
2021/07/30 01:38:46;;;;;;;18.27;6.10;;;17.30;99.90;;;;;;5112939;28;20933;-84
2021/07/30 01:41:15;;;;;;;15.60;3.33;;;17.30;99.90;;;;;;5114396;28;20460;-84
2021/07/30 01:43:44;;;;;;;14.27;3.57;;;17.30;99.90;;;;;;5114347;28;20448;-84
2021/07/30 01:46:11;;;;;;;14.40;3.33;;;17.30;99.90;;;;;;5110614;28;20880;-84
2021/07/30 01:48:38;;;;;;;15.23;3.87;;;17.30;99.90;;;;;;5093048;28;20489;-84
2021/07/30 01:51:06;;;;;;;16.97;3.60;;;17.30;99.90;;;;;;5093621;28;20943;-84
2021/07/30 01:53:33;;;;;;;15.50;4.20;;;17.40;99.90;;;;;;5093513;28;20451;-84
2021/07/30 01:56:03;;;;;;;18.30;3.70;;;17.40;99.90;;;;;;5095304;28;20473;-84
2021/07/30 01:58:32;;;;;;;13.47;3.20;;;17.40;99.90;;;;;;5112706;28;20448;-83
2021/07/30 02:00:59;;;;;;;14.03;4.27;;;17.40;99.90;;;;;;5113681;28;20490;-83
2021/07/30 02:03:26;;;;;;;14.73;3.30;;;17.40;99.90;;;;;;5113415;28;20453;-84
2021/07/30 02:05:53;;;;;;;17.33;3.30;;;17.50;99.90;;;;;;5112855;28;20480;-85
2021/07/30 02:08:20;;;;;;;14.50;3.30;;;17.50;99.90;;;;;;5093906;28;20816;-83
2021/07/30 02:10:46;;;;;;;14.47;3.70;;;17.50;99.90;;;;;;5097486;28;20460;-84
2021/07/30 02:15:59;;;;;;;16.67;3.90;;;17.50;99.90;;;;;;5098201;28;20532;-85
2021/07/30 02:18:26;;;;;;;17.83;3.43;;;17.50;99.90;;;;;;5116593;28;20463;-85
2021/07/30 02:20:52;;;;;;;15.40;3.70;;;17.40;99.90;;;;;;5117892;28;20452;-84
2021/07/30 02:23:19;;;;;;;13.73;3.53;;;17.50;99.90;;;;;;5118311;28;20524;-84
2021/07/30 02:25:46;;;;;;;14.77;3.10;;;17.60;99.90;;;;;;5117796;28;20475;-84
2021/07/30 02:28:13;;;;;;;18.87;3.47;;;17.50;99.90;;;;;;5078000;28;20447;-85
2021/07/30 02:30:40;;;;;;;16.70;3.20;;;17.60;99.90;;;;;;5077284;28;20457;-85
2021/07/30 02:33:08;;;;;;;16.67;4.20;;;17.60;99.90;;;;;;5076818;28;20458;-83
2021/07/30 02:35:34;;;;;;;15.60;3.83;;;17.60;99.90;;;;;;5077349;28;20484;-84
2021/07/30 02:38:01;;;;;;;14.77;3.03;;;17.50;99.90;;;;;;5112881;28;20465;-85
2021/07/30 02:40:28;;;;;;;18.03;3.87;;;17.50;99.90;;;;;;5116368;28;20449;-85
2021/07/30 02:42:55;;;;;;;13.90;3.27;;;17.50;99.90;;;;;;5117518;28;20456;-84
2021/07/30 02:45:21;;;;;;;13.00;3.00;;;17.50;99.90;;;;;;5116347;28;20533;-84
2021/07/30 02:47:48;;;;;;;14.70;3.73;;;17.50;99.90;;;;;;5100139;28;20458;-84
2021/07/30 02:50:16;;;;;;;18.00;3.13;;;17.50;99.90;;;;;;5096519;28;20483;-85
2021/07/30 02:52:43;;;;;;;15.67;3.00;;;17.60;99.90;;;;;;5095848;28;20450;-84
2021/07/30 02:55:10;;;;;;;12.40;2.90;;;17.60;99.90;;;;;;5096000;28;20446;-84
2021/07/30 02:57:37;;;;;;;15.20;3.60;;;17.50;99.90;;;;;;5110059;28;20444;-85
2021/07/30 03:00:05;;;;;;;17.37;3.87;;;17.50;99.90;;;;;;5096827;28;20827;-84
2021/07/30 03:02:32;;;;;;;13.83;2.87;;;17.50;99.90;;;;;;5095784;28;20835;-84
2021/07/30 03:04:59;;;;;;;15.00;3.83;;;17.50;99.90;;;;;;5096324;28;20452;-86
2021/07/30 03:07:27;;;;;;;15.53;3.60;;;17.50;99.90;;;;;;5096553;28;20466;-85
2021/07/30 03:09:54;;;;;;;21.97;4.60;;;17.50;99.90;;;;;;5095826;28;21003;-84
2021/07/30 03:12:20;;;;;;;14.90;3.87;;;17.40;99.90;;;;;;5095922;28;20529;-84
2021/07/30 03:14:47;;;;;;;15.30;3.90;;;17.40;99.90;;;;;;5095659;28;20462;-84
2021/07/30 03:17:14;;;;;;;15.77;3.60;;;17.30;99.90;;;;;;5106785;28;20476;-84
2021/07/30 03:19:41;;;;;;;16.30;3.57;;;17.30;99.90;;;;;;5115786;28;20446;-85
2021/07/30 03:22:08;;;;;;;12.00;3.10;;;17.30;99.90;;;;;;5116863;28;20477;-84
2021/07/30 03:24:36;;;;;;;14.83;3.50;;;17.20;99.90;;;;;;5115981;28;20459;-85
2021/07/30 03:27:05;;;;;;;15.37;3.20;;;17.10;99.90;;;;;;5107174;28;20485;-84
2021/07/30 03:29:32;;;;;;;13.90;3.40;;;17.00;99.90;;;;;;5094963;28;20491;-84
2021/07/30 03:31:59;;;;;;;12.90;3.10;;;17.00;99.90;;;;;;5096111;28;20953;-84
2021/07/30 03:34:27;;;;;;;14.30;3.50;;;17.00;99.90;;;;;;5095799;28;20459;-84
2021/07/30 03:36:54;;;;;;;13.07;3.57;;;17.00;99.90;;;;;;5110685;22;20501;-85
2021/07/30 03:39:21;;;;;;;13.93;3.93;;;17.00;99.90;;;;;;5095374;28;20446;-86
2021/07/30 03:41:49;;;;;;;13.53;3.07;;;17.00;99.90;;;;;;5096612;28;20811;-85
2021/07/30 03:44:16;;;;;;;12.93;3.77;;;16.90;99.90;;;;;;5096569;28;20446;-85
2021/07/30 03:46:43;;;;;;;15.07;3.80;;;16.90;99.90;;;;;;5093300;28;21008;-86
2021/07/30 03:49:09;;;;;;;13.20;3.80;;;16.90;99.90;;;;;;5095196;28;20870;-86
2021/07/30 03:51:36;;;;;;;15.07;3.70;;;16.90;99.90;;;;;;5095668;28;20457;-86
2021/07/30 03:54:03;;;;;;;13.63;3.03;;;16.80;99.90;;;;;;5096110;28;20455;-86
2021/07/30 03:56:30;;;;;;;14.00;3.93;;;16.80;99.90;;;;;;5107518;28;20501;-86
2021/07/30 03:58:58;;;;;;;15.80;3.87;;;16.70;99.90;;;;;;5098247;28;20532;-86
2021/07/30 04:01:24;;;;;;;12.90;3.90;;;16.70;99.90;;;;;;5097190;28;21000;-85
2021/07/30 04:03:51;;;;;;;13.77;3.60;;;16.70;99.90;;;;;;5094444;28;20471;-86
2021/07/30 04:06:18;;;;;;;12.80;3.30;;;16.70;99.90;;;;;;5096525;28;20472;-86
2021/07/30 04:08:45;;;;;;;15.33;3.80;;;16.60;99.90;;;;;;5098262;28;20452;-88
2021/07/30 04:11:12;;;;;;;16.03;3.87;;;16.60;99.90;;;;;;5099470;28;20460;-89
2021/07/30 04:13:39;;;;;;;14.93;3.50;;;16.60;99.90;;;;;;5099868;28;20453;-88
2021/07/30 04:16:08;;;;;;;13.17;4.03;;;16.60;99.90;;;;;;5098708;28;21007;-88
2021/07/30 04:18:36;;;;;;;15.10;3.60;;;16.60;99.90;;;;;;5098973;28;20470;-88
2021/07/30 04:21:05;;;;;;;13.70;3.30;;;16.50;99.90;;;;;;5098598;28;20825;-88
2021/07/30 04:23:32;;;;;;;13.20;4.10;;;16.60;99.90;;;;;;5098182;28;20930;-88
2021/07/30 04:25:59;;;;;;;14.20;4.50;;;16.60;99.90;;;;;;5097611;28;20540;-89
2021/07/30 04:28:26;;;;;;;12.90;4.70;;;16.60;99.90;;;;;;5098025;28;20896;-89
2021/07/30 04:30:54;;;;;;;12.90;3.87;;;16.60;99.90;;;;;;5097973;28;21092;-88
2021/07/30 04:33:22;;;;;;;16.07;3.70;;;16.60;99.90;;;;;;5098348;28;20518;-88
2021/07/30 04:35:49;;;;;;;14.93;3.97;;;16.60;99.90;;;;;;5098120;28;20476;-88
2021/07/30 04:38:16;;;;;;;12.50;3.43;;;16.70;99.90;;;;;;5095463;28;20836;-86
2021/07/30 04:40:43;;;;;;;13.17;4.10;;;16.70;99.90;;;;;;5096037;28;20449;-90
2021/07/30 04:43:10;;;;;;;15.20;4.30;;;16.70;99.90;;;;;;5096419;28;20470;-87
2021/07/30 04:45:37;;;;;;;19.73;4.07;;;16.70;99.90;;;;;;5097451;28;20447;-87
2021/07/30 04:48:04;;;;;;;14.83;3.67;;;16.70;99.90;;;;;;5096189;28;20472;-87
2021/07/30 04:50:33;;;;;;;14.13;3.77;;;16.80;99.90;;;;;;5095374;28;20508;-87
2021/07/30 04:52:59;;;;;;;13.13;3.70;;;16.80;99.90;;;;;;5096126;28;21060;-86
2021/07/30 04:55:26;;;;;;;15.47;3.80;;;16.80;99.90;;;;;;5096945;28;20452;-86
2021/07/30 04:57:54;;;;;;;13.80;3.83;;;16.80;99.90;;;;;;5095213;28;20866;-87
2021/07/30 05:00:21;;;;;;;12.73;3.50;;;16.80;99.90;;;;;;5095484;28;21004;-87
2021/07/30 05:02:48;;;;;;;13.83;3.40;;;16.80;99.90;;;;;;5095110;28;20454;-87
2021/07/30 05:05:15;;;;;;;13.23;3.73;;;16.80;99.90;;;;;;5094616;28;20946;-87
2021/07/30 05:07:44;;;;;;;14.53;5.10;;;16.90;99.90;;;;;;5095087;28;20854;-88
2021/07/30 05:10:11;;;;;;;12.23;3.17;;;16.90;99.90;;;;;;5095471;28;20488;-89
2021/07/30 05:12:38;;;;;;;12.37;3.50;;;16.80;99.90;;;;;;5096372;28;20548;-87
2021/07/30 05:15:06;;;;;;;13.90;3.90;;;16.90;99.90;;;;;;5096451;28;20461;-89
2021/07/30 05:17:33;;;;;;;13.67;3.53;;;16.90;99.90;;;;;;5095055;28;20464;-90
2021/07/30 05:20:00;;;;;;;14.10;3.60;;;17.00;99.90;;;;;;5095027;28;20464;-89
2021/07/30 05:22:26;;;;;;;12.30;3.60;;;16.90;99.90;;;;;;5095666;28;20449;-90
2021/07/30 05:24:55;;;;;;;12.30;3.37;;;16.90;99.90;;;;;;5095838;28;20535;-89
2021/07/30 05:27:21;;;;;;;13.10;3.70;;;17.00;99.90;;;;;;5094948;28;20468;-87
2021/07/30 05:29:48;;;;;;;11.90;3.47;;;17.10;99.90;;;;;;5094219;28;20486;-88
2021/07/30 05:32:15;;;;;;;16.37;3.70;;;17.20;99.90;;;;;;5094403;28;20828;-88
2021/07/30 05:34:42;;;;;;;16.03;3.80;;;17.20;99.90;;;;;;5097244;28;20542;-89
2021/07/30 05:37:08;;;;;;;12.10;3.90;;;17.20;99.90;;;;;;5098743;28;20859;-89
2021/07/30 05:39:35;;;;;;;11.27;3.53;;;17.30;99.90;;;;;;5097356;28;20542;-89
2021/07/30 05:42:04;;;;;;;15.63;3.60;;;17.30;99.90;;;;;;5098505;28;20493;-88
2021/07/30 05:44:31;;;;;;;12.17;3.17;;;17.40;99.90;;;;;;5098942;28;20457;-89
2021/07/30 05:46:59;;;;;;;12.07;3.37;;;17.50;99.90;;;;;;5098531;28;20505;-89
2021/07/30 05:49:25;;;;;;;14.00;2.87;;;17.50;99.90;;;;;;5109391;28;20458;-89
2021/07/30 05:51:52;;;;;;;13.30;3.40;;;17.50;99.90;;;;;;5118356;28;20461;-88
2021/07/30 05:54:19;;;;;;;12.73;3.50;;;17.50;99.90;;;;;;5117170;28;20472;-89
2021/07/30 05:56:46;;;;;;;15.53;3.27;;;17.40;99.90;;;;;;5100927;28;20821;-87
2021/07/30 05:59:14;;;;;;;16.17;3.43;;;17.50;99.90;;;;;;5093432;28;20450;-88
2021/07/30 06:01:41;;;;;;;18.77;3.47;;;17.50;99.90;;;;;;5093619;28;20992;-88
2021/07/30 06:04:08;;;;;;;11.70;2.73;;;17.50;99.90;;;;;;5093849;28;20546;-88
2021/07/30 06:06:34;;;;;;;14.27;3.53;;;17.50;99.90;;;;;;5093646;28;20911;-88
2021/07/30 06:09:01;;;;;;;14.90;3.80;;;17.60;99.90;;;;;;5092865;28;20443;-87
2021/07/30 06:11:28;;;;;;;12.93;3.53;;;17.50;99.90;;;;;;5094538;28;20567;-88
2021/07/30 06:13:55;;;;;;;14.10;3.13;;;17.50;99.90;;;;;;5109435;28;20983;-88
2021/07/30 06:16:23;;;;;;;16.17;3.03;;;17.50;99.90;;;;;;5097008;28;20895;-87
2021/07/30 06:18:50;;;;;;;16.20;3.27;;;17.60;99.90;;;;;;5092884;28;20464;-87
2021/07/30 06:21:19;;;;;;;14.70;3.03;;;17.60;99.90;;;;;;5094736;28;20847;-87
2021/07/30 06:23:46;;;;;;;15.17;3.23;;;17.70;99.90;;;;;;5093549;28;20535;-87
2021/07/30 06:26:13;;;;;;;12.93;2.70;;;17.80;99.90;;;;;;5093005;28;20982;-88
2021/07/30 06:28:40;;;;;;;15.80;2.93;;;17.90;99.90;;;;;;5092384;28;20536;-87
2021/07/30 06:31:07;;;;;;;13.57;2.87;;;17.90;99.90;;;;;;5092371;28;20492;-87
2021/07/30 06:33:36;;;;;;;13.37;3.17;;;18.00;99.90;;;;;;5093049;28;20454;-86
2021/07/30 06:36:04;;;;;;;14.90;3.57;;;18.10;99.90;;;;;;5092404;28;20565;-86
2021/07/30 06:38:31;;;;;;;21.10;3.40;;;18.20;99.90;;;;;;5091002;28;20816;-87
2021/07/30 06:40:57;;;;;;;15.17;3.10;;;18.20;99.90;;;;;;5092549;28;20805;-87
2021/07/30 06:43:24;;;;;;;16.43;3.20;;;18.30;99.90;;;;;;5094821;28;20543;-87
2021/07/30 06:45:51;;;;;;;19.33;2.77;;;18.50;99.90;;;;;;5091368;28;21038;-86
2021/07/30 06:48:18;;;;;;;14.70;2.40;;;18.60;99.90;;;;;;5097515;28;20458;-87
2021/07/30 06:50:46;;;;;;;17.10;3.07;;;18.70;99.90;;;;;;5092444;28;20491;-87
2021/07/30 06:53:13;;;;;;;16.70;2.90;;;18.80;99.90;;;;;;5092438;28;20450;-87
2021/07/30 06:55:40;;;;;;;14.60;2.73;;;18.80;99.90;;;;;;5092439;28;20487;-87
2021/07/30 06:58:06;;;;;;;14.60;2.60;;;18.90;99.90;;;;;;5105744;28;20962;-87
2021/07/30 07:00:34;;;;;;;17.80;2.53;;;18.90;99.90;;;;;;5112573;28;20454;-87
2021/07/30 07:03:03;;;;;;;15.00;2.67;;;18.80;99.90;;;;;;5109780;28;20949;-87
2021/07/30 07:05:30;;;;;;;13.47;2.50;;;18.90;99.90;;;;;;5092277;28;20870;-88
2021/07/30 07:07:59;;;;;;;13.57;2.70;;;18.90;99.90;;;;;;5093496;28;20545;-86
2021/07/30 07:10:25;;;;;;;16.83;2.30;;;19.20;99.90;;;;;;5091515;28;20909;-86
2021/07/30 07:12:52;;;;;;;15.73;2.50;;;19.30;99.90;;;;;;5092307;28;20454;-86
2021/07/30 07:15:19;;;;;;;13.10;2.50;;;19.20;99.90;;;;;;5093807;28;20451;-86
2021/07/30 07:17:46;;;;;;;13.50;2.43;;;19.20;99.90;;;;;;5101008;28;20509;-86
2021/07/30 07:20:13;;;;;;;14.30;2.47;;;19.10;99.90;;;;;;5099921;28;20446;-86
2021/07/30 07:22:40;;;;;;;12.30;2.20;;;19.20;99.90;;;;;;5094634;28;20457;-86
2021/07/30 07:25:09;;;;;;;14.20;2.47;;;19.20;99.90;;;;;;5091666;28;20545;-86
2021/07/30 07:27:37;;;;;;;14.10;3.00;;;19.30;99.90;;;;;;5091966;28;20473;-86
2021/07/30 07:30:04;;;;;;;18.30;2.73;;;19.30;99.90;;;;;;5092865;28;20490;-86
2021/07/30 07:32:31;;;;;;;11.83;2.07;;;19.30;99.90;;;;;;5093990;28;20902;-86
2021/07/30 07:34:58;;;;;;;15.30;3.00;;;19.40;99.90;;;;;;5092159;28;20485;-86
2021/07/30 07:37:28;;;;;;;14.17;2.27;;;19.50;99.90;;;;;;5091116;28;20544;-86
2021/07/30 07:39:54;;;;;;;14.17;2.60;;;19.60;99.90;;;;;;5092075;28;20454;-86
2021/07/30 07:42:23;;;;;;;16.80;2.50;;;19.70;99.90;;;;;;5096344;28;20449;-85
2021/07/30 07:44:51;;;;;;;16.67;2.43;;;20.00;99.90;;;;;;5096973;28;20441;-86
2021/07/30 07:47:17;;;;;;;14.50;2.33;;;20.00;99.90;;;;;;5104722;28;20556;-86
2021/07/30 07:49:44;;;;;;;16.73;2.57;;;20.20;99.90;;;;;;5100328;28;20594;-86
2021/07/30 07:52:11;;;;;;;17.70;2.80;;;20.20;99.90;;;;;;5098382;28;20482;-86
2021/07/30 07:54:38;;;;;;;16.77;2.23;;;20.20;99.90;;;;;;5096604;28;21179;-87
2021/07/30 07:57:05;;;;;;;15.80;2.30;;;20.30;99.90;;;;;;5097178;28;20470;-87
2021/07/30 07:59:35;;;;;;;18.97;2.33;;;20.30;99.90;;;;;;5098668;28;20534;-87
2021/07/30 08:02:04;;;;;;;15.87;2.37;;;20.40;99.90;;;;;;5096070;28;20438;-87
2021/07/30 08:04:31;;;;;;;16.93;2.23;;;20.60;99.90;;;;;;5096189;28;20832;-88
2021/07/30 08:07:00;;;;;;;17.23;2.40;;;20.70;99.90;;;;;;5096065;28;20914;-87
2021/07/30 08:09:28;;;;;;;25.83;2.70;;;21.00;99.90;;;;;;5098158;28;20548;-87
2021/07/30 08:11:55;;;;;;;19.47;2.50;;;21.00;99.90;;;;;;5098230;28;20483;-87
2021/07/30 08:14:22;;;;;;;24.43;2.40;;;21.10;99.90;;;;;;5096675;28;20446;-87
2021/07/30 08:16:57;;;;;;;20.03;2.47;;;21.20;99.90;;;;;;5096502;28;20470;-86
2021/07/30 08:19:24;;;;;;;21.40;2.23;;;21.20;99.90;;;;;;5096720;28;20496;-86
2021/07/30 08:21:50;;;;;;;29.17;2.77;;;21.30;99.90;;;;;;5100393;28;20450;-86
2021/07/30 08:24:17;;;;;;;23.97;2.50;;;21.40;99.90;;;;;;5098075;28;20470;-87
2021/07/30 08:26:44;;;;;;;25.93;2.40;;;21.50;99.90;;;;;;5095918;28;20481;-87
2021/07/30 08:29:11;;;;;;;28.97;2.33;;;21.90;99.90;;;;;;5111923;28;20457;-87
2021/07/30 08:31:38;;;;;;;32.67;2.50;;;22.30;99.90;;;;;;5117278;28;20478;-86
2021/07/30 08:34:06;;;;;;;29.97;2.33;;;22.40;99.90;;;;;;5112380;28;20544;-86
2021/07/30 08:36:32;;;;;;;26.13;2.50;;;22.40;99.90;;;;;;5094901;28;20477;-87
2021/07/30 08:38:59;;;;;;;35.27;2.77;;;22.40;99.90;;;;;;5097018;28;20992;-86
2021/07/30 08:41:26;;;;;;;43.13;2.50;;;22.30;99.90;;;;;;5094179;28;20494;-87
2021/07/30 08:43:54;;;;;;;31.97;2.57;;;22.40;99.90;;;;;;5094834;28;20452;-87
2021/07/30 08:46:25;;;;;;;33.37;2.83;;;22.70;99.90;;;;;;5096892;28;20474;-87
2021/07/30 08:48:52;;;;;;;33.27;2.67;;;22.90;99.90;;;;;;5095406;28;20454;-87
2021/07/30 08:51:22;;;;;;;43.13;2.70;;;23.20;99.90;;;;;;5096986;28;20477;-87
2021/07/30 08:53:50;;;;;;;25.33;2.47;;;23.40;99.90;;;;;;5098108;28;20796;-87
2021/07/30 08:56:17;;;;;;;47.27;3.30;;;23.70;99.90;;;;;;5093825;28;20473;-88
2021/07/30 08:58:44;;;;;;;46.70;3.17;;;23.70;99.90;;;;;;5093526;28;20454;-85
2021/07/30 09:01:11;;;;;;;46.50;2.63;;;23.40;99.90;;;;;;5094810;28;20940;-86
2021/07/30 09:03:39;;;;;;;46.40;2.80;;;23.50;99.90;;;;;;5095071;28;20450;-86
2021/07/30 09:06:13;;;;;;;48.13;2.87;;;23.40;99.90;;;;;;5094729;28;20485;-87
2021/07/30 09:08:42;;;;;;;43.07;2.43;;;23.70;99.90;;;;;;5094227;28;20458;-87
2021/07/30 09:11:09;;;;;;;49.57;4.70;;;24.00;99.90;;;;;;5097233;28;20474;-86
2021/07/30 09:13:36;;;;;;;53.37;5.07;;;23.90;99.90;;;;;;5095764;28;20449;-86
2021/07/30 09:16:06;;;;;;;53.57;4.27;;;23.80;99.90;;;;;;5097048;28;20474;-86
2021/07/30 09:18:35;;;;;;;52.30;5.00;;;23.80;99.90;;;;;;5096535;28;20479;-86
2021/07/30 09:21:25;;;;;;;53.13;6.40;;;23.80;99.90;;;;;;5102125;28;20976;-86
2021/07/30 09:23:56;;;;;;;57.67;7.07;;;24.10;99.90;;;;;;5099121;28;20454;-86
2021/07/30 09:26:47;;;;;;;53.50;7.60;;;24.20;99.90;;;;;;5097499;28;20547;-86
2021/07/30 09:29:16;;;;;;;54.40;4.17;;;24.50;99.90;;;;;;5096634;28;20454;-86
2021/07/30 09:31:48;;;;;;;55.70;9.80;;;24.40;99.90;;;;;;5097280;28;20482;-86
2021/07/30 09:34:24;;;;;;;54.60;5.73;;;24.60;99.90;;;;;;5090058;28;20446;-86
2021/07/30 09:36:56;;;;;;;49.90;3.83;;;24.50;99.90;;;;;;5123497;22;20473;-83
2021/07/30 09:39:33;;;;;;;55.30;8.90;;;24.90;99.90;;;;;;5082094;28;20527;-84
2021/07/30 09:42:04;;;;;;;54.57;5.70;;;24.90;99.90;;;;;;5082798;28;20518;-85
2021/07/30 09:44:31;;;;;;;65.30;30.30;;;24.90;99.90;;;;;;5082995;28;20555;-85
2021/07/30 09:47:21;;;;;;;66.97;22.03;;;24.90;99.90;;;;;;5082047;28;20457;-84
2021/07/30 09:49:51;;;;;;;60.70;14.80;;;25.10;99.90;;;;;;5074043;28;20474;-85
2021/07/30 09:52:20;;;;;;;124.37;113.57;;;25.60;99.90;;;;;;5094436;28;20479;-84
2021/07/30 09:54:50;;;;;;;87.60;71.13;;;25.70;99.90;;;;;;5095324;28;20516;-84
2021/07/30 09:57:18;;;;;;;114.43;101.60;;;25.20;99.90;;;;;;5088343;28;20467;-84
2021/07/30 09:59:46;;;;;;;79.10;50.93;;;25.30;99.90;;;;;;5080710;28;20474;-83
2021/07/30 10:02:15;;;;;;;63.47;22.07;;;25.50;99.90;;;;;;5080978;28;20447;-84
2021/07/30 10:04:45;;;;;;;70.23;35.03;;;25.70;99.90;;;;;;5079693;28;20577;-83
2021/07/30 10:07:20;;;;;;;221.43;205.90;;;25.70;99.90;;;;;;5080309;28;20534;-85
2021/07/30 10:10:01;;;;;;;57.40;13.23;;;25.90;99.90;;;;;;5090698;28;20541;-85
2021/07/30 10:12:29;;;;;;;80.30;67.87;;;26.40;99.90;;;;;;5081228;28;20471;-84
2021/07/30 10:14:56;;;;;;;80.77;71.07;;;26.80;99.90;;;;;;5081425;28;20491;-84
2021/07/30 10:17:29;;;;;;;73.17;47.00;;;26.80;99.90;;;;;;5082560;28;20475;-84
2021/07/30 10:19:58;;;;;;;128.23;117.17;;;27.00;99.90;;;;;;5086015;28;20508;-81
2021/07/30 10:22:31;;;;;;;372.33;351.80;;;27.30;99.90;;;;;;5084895;28;20530;-81
2021/07/30 10:25:00;;;;;;;182.17;169.10;;;27.20;99.90;;;;;;5082857;28;20465;-82
2021/07/30 10:27:28;;;;;;;233.40;218.27;;;26.50;99.90;;;;;;5082884;28;20542;-83
2021/07/30 10:30:06;;;;;;;135.70;124.27;;;26.20;99.90;;;;;;5082736;28;20538;-82
2021/07/30 10:32:57;;;;;;;72.23;37.57;;;25.90;99.90;;;;;;5083227;28;20497;-81
2021/07/30 10:35:44;;;;;;;88.20;76.40;;;26.30;99.90;;;;;;5083538;28;20466;-82
2021/07/30 10:38:17;;;;;;;166.47;153.73;;;26.50;99.90;;;;;;5076474;28;20519;-82
2021/07/30 10:41:06;;;;;;;111.57;101.33;;;26.40;99.90;;;;;;5081440;28;20511;-82
2021/07/30 10:43:34;;;;;;;199.83;185.90;;;25.90;99.90;;;;;;5083258;28;20463;-82
2021/07/30 10:46:13;;;;;;;114.50;103.00;;;25.50;99.90;;;;;;5082031;28;20482;-81
2021/07/30 10:48:43;;;;;;;90.17;76.70;;;25.10;99.90;;;;;;5081365;28;20482;-82
2021/07/30 10:51:24;;;;;;;66.23;30.70;;;24.90;99.90;;;;;;5081450;28;20482;-82
2021/07/30 10:53:56;;;;;;;53.50;12.13;;;24.80;99.90;;;;;;5080916;28;20442;-80
2021/07/30 10:59:49;;;;;;;129.03;117.83;;;24.70;99.90;;;;;;5078888;28;20830;-82
2021/07/30 11:02:16;;;;;;;58.70;20.90;;;24.50;99.90;;;;;;5080365;28;20514;-81
2021/07/30 11:05:06;;;;;;;70.10;41.37;;;24.70;99.90;;;;;;5078655;28;20465;-81
2021/07/30 11:07:34;;;;;;;120.83;109.90;;;24.70;99.90;;;;;;5077187;28;20467;-82
2021/07/30 11:10:14;;;;;;;84.23;70.87;;;24.30;99.90;;;;;;5079768;28;20497;-81
2021/07/30 11:12:43;;;;;;;176.50;163.20;;;24.20;99.90;;;;;;5073179;28;20561;-81
2021/07/30 11:15:11;;;;;;;76.00;42.70;;;24.60;99.90;;;;;;5075834;28;20447;-81
2021/07/30 11:17:37;;;;;;;61.70;20.30;;;24.70;99.90;;;;;;5075266;28;20481;-81
2021/07/30 11:20:05;;;;;;;76.80;49.23;;;25.00;99.90;;;;;;5075713;28;20465;-82
2021/07/30 11:22:32;;;;;;;181.47;168.10;;;24.90;99.90;;;;;;5074607;28;20451;-81
2021/07/30 11:24:59;;;;;;;502.60;473.33;;;25.30;99.90;;;;;;5075009;28;20474;-81
2021/07/30 11:27:27;;;;;;;321.80;302.57;;;25.50;99.90;;;;;;5076778;28;20470;-80
2021/07/30 11:30:12;;;;;;;418.40;395.17;;;26.00;99.90;;;;;;5071852;28;20490;-80
2021/07/30 11:32:39;;;;;;;408.63;385.67;;;26.00;99.90;;;;;;5065125;28;20480;-80
2021/07/30 11:35:09;;;;;;;195.23;181.63;;;25.80;99.90;;;;;;5064593;28;20834;-81
2021/07/30 11:37:37;;;;;;;442.67;418.40;;;25.40;99.90;;;;;;5075340;28;20540;-81
2021/07/30 11:40:04;;;;;;;213.20;198.40;;;25.20;99.90;;;;;;5071894;28;20451;-81
2021/07/30 11:42:34;;;;;;;274.30;257.57;;;25.20;99.90;;;;;;5073437;28;20943;-82
2021/07/30 11:45:04;;;;;;;329.13;310.27;;;25.40;99.90;;;;;;5073520;28;20549;-81
2021/07/30 11:47:34;;;;;;;273.07;256.00;;;25.30;99.90;;;;;;5073729;28;20958;-82
2021/07/30 11:50:06;;;;;;;155.47;143.50;;;25.30;99.90;;;;;;5074291;28;20514;-81
2021/07/30 11:52:34;;;;;;;542.37;512.30;;;25.40;99.90;;;;;;5072859;28;21058;-82
2021/07/30 11:55:22;;;;;;;242.50;227.07;;;25.90;99.90;;;;;;5073958;28;20446;-83
2021/07/30 11:57:51;;;;;;;568.50;532.87;;;26.80;99.90;;;;;;5069865;28;20544;-82
2021/07/30 12:00:25;;;;;;;532.23;500.27;;;27.40;99.90;;;;;;5073351;28;20497;-81
2021/07/30 12:02:54;;;;;;;572.93;541.13;;;28.10;99.90;;;;;;5056487;28;20446;-82
2021/07/30 12:05:30;;;;;;;617.57;581.80;;;28.30;99.90;;;;;;5075484;28;20454;-83
2021/07/30 12:07:58;;;;;;;685.63;645.40;;;28.60;99.90;;;;;;5075116;28;20470;-82
2021/07/30 12:10:26;;;;;;;556.37;525.67;;;28.90;99.90;;;;;;5073992;28;20431;-83
2021/07/30 12:12:53;;;;;;;642.77;604.30;;;29.20;99.90;;;;;;5073700;28;20474;-82
2021/07/30 12:15:26;;;;;;;583.17;550.50;;;28.40;99.90;;;;;;5073391;28;20459;-83
2021/07/30 12:18:00;;;;;;;676.47;636.83;;;28.40;99.90;;;;;;5073970;28;20533;-84
2021/07/30 12:20:31;;;;;;;709.77;668.43;;;28.10;99.90;;;;;;5073926;28;20442;-81
2021/07/30 12:23:03;;;;;;;666.90;627.47;;;28.00;99.90;;;;;;5074567;28;20422;-83
2021/07/30 12:25:35;;;;;;;671.23;630.87;;;27.90;99.90;;;;;;5073860;28;20439;-81
2021/07/30 12:28:06;;;;;;;1999.90;999.90;;;27.70;99.90;;;;;;5075117;28;20470;-82
2021/07/30 12:30:33;;;;;;;674.90;635.63;;;27.30;99.90;;;;;;5077337;28;20500;-82
2021/07/30 12:33:01;;;;;;;620.97;585.57;;;27.00;99.90;;;;;;5077359;28;20490;-81
2021/07/30 12:35:35;;;;;;;646.90;611.00;;;26.80;99.90;;;;;;5079963;28;20454;-84
2021/07/30 12:38:05;;;;;;;577.50;545.13;;;26.60;99.90;;;;;;5081556;28;20508;-83
2021/07/30 12:40:33;;;;;;;735.57;692.00;;;26.40;99.90;;;;;;5081163;28;20457;-84
2021/07/30 12:43:10;;;;;;;619.30;584.30;;;26.60;99.90;;;;;;5080556;28;20823;-83